sensor_id;sensor_type;location;lat;lon;timestamp;pressure;altitude;pressure_sealevel;temperature
43802;BMP280;29429;51.074;13.764;2023-09-19T00:00:46;99255.84;;;18.38
43802;BMP280;29429;51.074;13.764;2023-09-19T00:03:15;99262.59;;;18.31
43802;BMP280;29429;51.074;13.764;2023-09-19T00:05:43;99264.22;;;18.27
43802;BMP280;29429;51.074;13.764;2023-09-19T00:08:13;99268.00;;;18.25
43802;BMP280;29429;51.074;13.764;2023-09-19T00:10:42;99266.66;;;18.28
43802;BMP280;29429;51.074;13.764;2023-09-19T00:13:10;99259.63;;;18.27
43802;BMP280;29429;51.074;13.764;2023-09-19T00:15:48;99256.13;;;18.27
43802;BMP280;29429;51.074;13.764;2023-09-19T00:18:20;99257.19;;;18.25
43802;BMP280;29429;51.074;13.764;2023-09-19T00:20:59;99253.13;;;18.23
43802;BMP280;29429;51.074;13.764;2023-09-19T00:23:26;99255.84;;;18.23
43802;BMP280;29429;51.074;13.764;2023-09-19T00:25:59;99257.19;;;18.25
43802;BMP280;29429;51.074;13.764;2023-09-19T00:28:26;99257.72;;;18.22
43802;BMP280;29429;51.074;13.764;2023-09-19T00:30:54;99243.16;;;18.23
43802;BMP280;29429;51.074;13.764;2023-09-19T00:33:22;99242.59;;;18.21
43802;BMP280;29429;51.074;13.764;2023-09-19T00:35:53;99236.66;;;18.19
43802;BMP280;29429;51.074;13.764;2023-09-19T00:38:22;99238.00;;;18.17
43802;BMP280;29429;51.074;13.764;2023-09-19T00:40:54;99243.16;;;18.18
43802;BMP280;29429;51.074;13.764;2023-09-19T00:43:27;99239.09;;;18.16
43802;BMP280;29429;51.074;13.764;2023-09-19T00:45:56;99245.84;;;18.13
43802;BMP280;29429;51.074;13.764;2023-09-19T00:48:26;99235.56;;;18.10
43802;BMP280;29429;51.074;13.764;2023-09-19T00:50:59;99231.78;;;18.11
43802;BMP280;29429;51.074;13.764;2023-09-19T00:53:33;99236.63;;;18.09
43802;BMP280;29429;51.074;13.764;2023-09-19T00:56:03;99232.31;;;18.08
43802;BMP280;29429;51.074;13.764;2023-09-19T00:58:35;99239.63;;;18.08
43802;BMP280;29429;51.074;13.764;2023-09-19T01:01:05;99236.63;;;18.09
43802;BMP280;29429;51.074;13.764;2023-09-19T01:03:36;99235.81;;;18.09
43802;BMP280;29429;51.074;13.764;2023-09-19T01:06:08;99238.78;;;18.07
43802;BMP280;29429;51.074;13.764;2023-09-19T01:09:08;99229.59;;;18.08
43802;BMP280;29429;51.074;13.764;2023-09-19T01:11:42;99237.16;;;18.06
43802;BMP280;29429;51.074;13.764;2023-09-19T01:14:34;99233.91;;;17.94
43802;BMP280;29429;51.074;13.764;2023-09-19T01:17:20;99250.09;;;17.94
43802;BMP280;29429;51.074;13.764;2023-09-19T01:20:10;99247.94;;;17.96
43802;BMP280;29429;51.074;13.764;2023-09-19T01:28:30;99258.72;;;17.96
43802;BMP280;29429;51.074;13.764;2023-09-19T01:31:03;99266.50;;;17.88
43802;BMP280;29429;51.074;13.764;2023-09-19T01:33:56;99264.34;;;17.90
43802;BMP280;29429;51.074;13.764;2023-09-19T01:36:37;99262.22;;;17.92
43802;BMP280;29429;51.074;13.764;2023-09-19T01:39:09;99260.88;;;17.94
43802;BMP280;29429;51.074;13.764;2023-09-19T01:44:40;99251.97;;;17.89
43802;BMP280;29429;51.074;13.764;2023-09-19T01:47:28;99251.13;;;17.88
43802;BMP280;29429;51.074;13.764;2023-09-19T01:53:02;99251.69;;;17.90
43802;BMP280;29429;51.074;13.764;2023-09-19T01:55:37;99254.38;;;17.90
43802;BMP280;29429;51.074;13.764;2023-09-19T01:58:17;99244.09;;;17.87
43802;BMP280;29429;51.074;13.764;2023-09-19T02:00:49;99256.25;;;17.90
43802;BMP280;29429;51.074;13.764;2023-09-19T02:03:21;99258.44;;;17.93
43802;BMP280;29429;51.074;13.764;2023-09-19T02:05:52;99253.03;;;17.93
43802;BMP280;29429;51.074;13.764;2023-09-19T02:08:22;99269.22;;;17.93
43802;BMP280;29429;51.074;13.764;2023-09-19T02:10:53;99267.63;;;17.92
43802;BMP280;29429;51.074;13.764;2023-09-19T02:13:21;99260.88;;;17.94
43802;BMP280;29429;51.074;13.764;2023-09-19T02:15:52;99261.44;;;17.96
43802;BMP280;29429;51.074;13.764;2023-09-19T02:18:20;99262.47;;;17.95
43802;BMP280;29429;51.074;13.764;2023-09-19T02:20:47;99265.19;;;17.95
43802;BMP280;29429;51.074;13.764;2023-09-19T02:23:15;99271.16;;;17.97
43802;BMP280;29429;51.074;13.764;2023-09-19T02:25:52;99269.53;;;17.96
43802;BMP280;29429;51.074;13.764;2023-09-19T02:28:21;99282.47;;;17.94
43802;BMP280;29429;51.074;13.764;2023-09-19T02:30:50;99281.38;;;17.95
43802;BMP280;29429;51.074;13.764;2023-09-19T02:33:21;99279.25;;;17.97
43802;BMP280;29429;51.074;13.764;2023-09-19T02:35:58;99267.88;;;17.95
43802;BMP280;29429;51.074;13.764;2023-09-19T02:38:27;99274.91;;;17.96
43802;BMP280;29429;51.074;13.764;2023-09-19T02:40:55;99267.88;;;17.95
43802;BMP280;29429;51.074;13.764;2023-09-19T02:43:23;99274.09;;;17.96
43802;BMP280;29429;51.074;13.764;2023-09-19T02:45:51;99285.72;;;17.96
43802;BMP280;29429;51.074;13.764;2023-09-19T02:48:21;99304.59;;;17.96
43802;BMP280;29429;51.074;13.764;2023-09-19T02:50:52;99304.06;;;17.99
43802;BMP280;29429;51.074;13.764;2023-09-19T02:53:20;99288.69;;;18.00
43802;BMP280;29429;51.074;13.764;2023-09-19T02:55:47;99285.44;;;17.98
43802;BMP280;29429;51.074;13.764;2023-09-19T02:58:16;99286.25;;;17.98
43802;BMP280;29429;51.074;13.764;2023-09-19T03:00:46;99286.78;;;18.00
43802;BMP280;29429;51.074;13.764;2023-09-19T03:03:15;99284.09;;;18.00
43802;BMP280;29429;51.074;13.764;2023-09-19T03:05:44;99299.50;;;18.00
43802;BMP280;29429;51.074;13.764;2023-09-19T03:08:16;99293.28;;;17.99
43802;BMP280;29429;51.074;13.764;2023-09-19T03:10:47;99306.22;;;17.97
43802;BMP280;29429;51.074;13.764;2023-09-19T03:13:15;99307.81;;;17.93
43802;BMP280;29429;51.074;13.764;2023-09-19T03:15:43;99307.53;;;17.90
43802;BMP280;29429;51.074;13.764;2023-09-19T03:18:14;99302.94;;;17.90
43802;BMP280;29429;51.074;13.764;2023-09-19T03:20:42;99327.00;;;17.92
43802;BMP280;29429;51.074;13.764;2023-09-19T03:23:10;99327.00;;;17.92
43802;BMP280;29429;51.074;13.764;2023-09-19T03:25:38;99329.41;;;17.93
43802;BMP280;29429;51.074;13.764;2023-09-19T03:28:07;99331.56;;;17.91
43802;BMP280;29429;51.074;13.764;2023-09-19T03:30:35;99327.81;;;17.92
43802;BMP280;29429;51.074;13.764;2023-09-19T03:33:11;99329.94;;;17.90
43802;BMP280;29429;51.074;13.764;2023-09-19T03:36:13;99330.50;;;17.92
43802;BMP280;29429;51.074;13.764;2023-09-19T03:38:52;99334.25;;;17.86
43802;BMP280;29429;51.074;13.764;2023-09-19T03:41:37;99333.72;;;17.89
43802;BMP280;29429;51.074;13.764;2023-09-19T03:44:09;99327.75;;;17.87
43802;BMP280;29429;51.074;13.764;2023-09-19T03:49:52;99326.66;;;17.78
43802;BMP280;29429;51.074;13.764;2023-09-19T03:52:19;99327.47;;;17.79
43802;BMP280;29429;51.074;13.764;2023-09-19T03:54:47;99330.41;;;17.77
43802;BMP280;29429;51.074;13.764;2023-09-19T03:57:15;99335.81;;;17.77
43802;BMP280;29429;51.074;13.764;2023-09-19T03:59:47;99337.44;;;17.78
43802;BMP280;29429;51.074;13.764;2023-09-19T04:02:15;99335.81;;;17.77
43802;BMP280;29429;51.074;13.764;2023-09-19T04:04:51;99334.72;;;17.73
43802;BMP280;29429;51.074;13.764;2023-09-19T04:07:19;99336.31;;;17.74
43802;BMP280;29429;51.074;13.764;2023-09-19T04:09:50;99337.94;;;17.75
43802;BMP280;29429;51.074;13.764;2023-09-19T04:12:17;99331.50;;;17.76
43802;BMP280;29429;51.074;13.764;2023-09-19T04:14:45;99342.00;;;17.78
43802;BMP280;29429;51.074;13.764;2023-09-19T04:17:13;99344.44;;;17.79
43802;BMP280;29429;51.074;13.764;2023-09-19T04:19:41;99349.28;;;17.77
43802;BMP280;29429;51.074;13.764;2023-09-19T04:22:09;99360.63;;;17.79
43802;BMP280;29429;51.074;13.764;2023-09-19T04:24:37;99357.41;;;17.82
43802;BMP280;29429;51.074;13.764;2023-09-19T04:27:05;99347.19;;;17.84
43802;BMP280;29429;51.074;13.764;2023-09-19T04:29:34;99345.56;;;17.88
43802;BMP280;29429;51.074;13.764;2023-09-19T04:32:02;99347.75;;;17.91
43802;BMP280;29429;51.074;13.764;2023-09-19T04:34:33;99335.84;;;17.87
43802;BMP280;29429;51.074;13.764;2023-09-19T04:37:02;99349.34;;;17.87
43802;BMP280;29429;51.074;13.764;2023-09-19T04:39:30;99352.59;;;17.84
43802;BMP280;29429;51.074;13.764;2023-09-19T04:41:58;99366.63;;;17.86
43802;BMP280;29429;51.074;13.764;2023-09-19T04:44:26;99365.53;;;17.87
43802;BMP280;29429;51.074;13.764;2023-09-19T04:51:13;99367.97;;;17.89
43802;BMP280;29429;51.074;13.764;2023-09-19T04:54:57;99366.88;;;17.85
43802;BMP280;29429;51.074;13.764;2023-09-19T04:57:25;99376.06;;;17.84
43802;BMP280;29429;51.074;13.764;2023-09-19T04:59:52;99367.94;;;17.84
43802;BMP280;29429;51.074;13.764;2023-09-19T05:02:19;99372.00;;;17.86
43802;BMP280;29429;51.074;13.764;2023-09-19T05:04:47;99380.94;;;17.87
43802;BMP280;29429;51.074;13.764;2023-09-19T05:07:15;99385.53;;;17.91
43802;BMP280;29429;51.074;13.764;2023-09-19T05:09:44;99390.13;;;17.96
43802;BMP280;29429;51.074;13.764;2023-09-19T05:12:12;99393.66;;;17.96
43802;BMP280;29429;51.074;13.764;2023-09-19T05:14:39;99392.59;;;17.97
43802;BMP280;29429;51.074;13.764;2023-09-19T05:17:07;99398.53;;;17.99
43802;BMP280;29429;51.074;13.764;2023-09-19T05:19:35;99399.59;;;17.98
43802;BMP280;29429;51.074;13.764;2023-09-19T05:22:04;99405.53;;;18.00
43802;BMP280;29429;51.074;13.764;2023-09-19T05:24:31;99401.25;;;18.04
43802;BMP280;29429;51.074;13.764;2023-09-19T05:26:58;99402.91;;;18.05
43802;BMP280;29429;51.074;13.764;2023-09-19T05:29:26;99400.44;;;18.04
43802;BMP280;29429;51.074;13.764;2023-09-19T05:31:54;99404.50;;;18.06
43802;BMP280;29429;51.074;13.764;2023-09-19T05:34:22;99402.34;;;18.08
43802;BMP280;29429;51.074;13.764;2023-09-19T05:36:53;99406.41;;;18.11
43802;BMP280;29429;51.074;13.764;2023-09-19T05:39:21;99404.53;;;18.11
43802;BMP280;29429;51.074;13.764;2023-09-19T05:41:50;99414.81;;;18.14
43802;BMP280;29429;51.074;13.764;2023-09-19T05:44:42;99415.34;;;18.16
43802;BMP280;29429;51.074;13.764;2023-09-19T05:47:09;99419.69;;;18.17
43802;BMP280;29429;51.074;13.764;2023-09-19T05:49:37;99425.91;;;18.23
43802;BMP280;29429;51.074;13.764;2023-09-19T05:52:08;99426.22;;;18.27
43802;BMP280;29429;51.074;13.764;2023-09-19T05:54:36;99424.59;;;18.31
43802;BMP280;29429;51.074;13.764;2023-09-19T05:57:04;99430.03;;;18.36
43802;BMP280;29429;51.074;13.764;2023-09-19T05:59:32;99435.47;;;18.46
43802;BMP280;29429;51.074;13.764;2023-09-19T06:02:00;99432.03;;;18.50
43802;BMP280;29429;51.074;13.764;2023-09-19T06:04:28;99429.59;;;18.54
43802;BMP280;29429;51.074;13.764;2023-09-19T06:06:58;99438.81;;;18.58
43802;BMP280;29429;51.074;13.764;2023-09-19T06:09:25;99439.88;;;18.62
43802;BMP280;29429;51.074;13.764;2023-09-19T06:11:55;99439.66;;;18.68
43802;BMP280;29429;51.074;13.764;2023-09-19T06:14:22;99440.50;;;18.74
43802;BMP280;29429;51.074;13.764;2023-09-19T06:16:51;99442.69;;;18.82
43802;BMP280;29429;51.074;13.764;2023-09-19T06:19:21;99450.50;;;18.89
43802;BMP280;29429;51.074;13.764;2023-09-19T06:21:50;99458.38;;;18.90
43802;BMP280;29429;51.074;13.764;2023-09-19T06:24:17;99461.09;;;18.95
43802;BMP280;29429;51.074;13.764;2023-09-19T06:26:46;99459.47;;;18.99
43802;BMP280;29429;51.074;13.764;2023-09-19T06:29:14;99455.16;;;19.03
43802;BMP280;29429;51.074;13.764;2023-09-19T06:31:42;99463.28;;;19.08
43802;BMP280;29429;51.074;13.764;2023-09-19T06:34:12;99467.59;;;19.09
43802;BMP280;29429;51.074;13.764;2023-09-19T06:36:41;99471.66;;;19.12
43802;BMP280;29429;51.074;13.764;2023-09-19T06:39:08;99467.88;;;19.13
43802;BMP280;29429;51.074;13.764;2023-09-19T06:41:38;99472.75;;;19.16
43802;BMP280;29429;51.074;13.764;2023-09-19T06:44:10;99469.78;;;19.17
43802;BMP280;29429;51.074;13.764;2023-09-19T06:46:38;99478.47;;;19.19
43802;BMP280;29429;51.074;13.764;2023-09-19T06:49:08;99486.00;;;19.22
43802;BMP280;29429;51.074;13.764;2023-09-19T06:51:38;99489.53;;;19.23
43802;BMP280;29429;51.074;13.764;2023-09-19T06:54:05;99493.59;;;19.25
43802;BMP280;29429;51.074;13.764;2023-09-19T06:56:33;99494.94;;;19.33
43802;BMP280;29429;51.074;13.764;2023-09-19T06:59:01;99500.66;;;19.36
43802;BMP280;29429;51.074;13.764;2023-09-19T07:01:30;99504.22;;;19.42
43802;BMP280;29429;51.074;13.764;2023-09-19T07:03:59;99506.38;;;19.50
43802;BMP280;29429;51.074;13.764;2023-09-19T07:06:26;99504.50;;;19.61
43802;BMP280;29429;51.074;13.764;2023-09-19T07:08:54;99499.63;;;19.68
43802;BMP280;29429;51.074;13.764;2023-09-19T07:11:23;99502.91;;;19.75
43802;BMP280;29429;51.074;13.764;2023-09-19T07:13:50;99515.91;;;19.83
43802;BMP280;29429;51.074;13.764;2023-09-19T07:16:17;99526.44;;;19.89
43802;BMP280;29429;51.074;13.764;2023-09-19T07:18:56;99529.66;;;19.96
43802;BMP280;29429;51.074;13.764;2023-09-19T07:21:24;99522.38;;;19.97
43802;BMP280;29429;51.074;13.764;2023-09-19T07:23:52;99532.38;;;19.96
43802;BMP280;29429;51.074;13.764;2023-09-19T07:26:20;99535.38;;;19.95
43802;BMP280;29429;51.074;13.764;2023-09-19T07:28:47;99538.06;;;20.00
43802;BMP280;29429;51.074;13.764;2023-09-19T07:31:14;99542.94;;;20.08
43802;BMP280;29429;51.074;13.764;2023-09-19T07:33:45;99538.06;;;20.10
43802;BMP280;29429;51.074;13.764;2023-09-19T07:36:13;99535.91;;;20.17
43802;BMP280;29429;51.074;13.764;2023-09-19T07:38:41;99533.19;;;20.22
43802;BMP280;29429;51.074;13.764;2023-09-19T07:41:09;99537.00;;;20.26
43802;BMP280;29429;51.074;13.764;2023-09-19T07:43:36;99551.06;;;20.28
43802;BMP280;29429;51.074;13.764;2023-09-19T07:46:07;99556.47;;;20.33
43802;BMP280;29429;51.074;13.764;2023-09-19T07:48:36;99554.88;;;20.37
43802;BMP280;29429;51.074;13.764;2023-09-19T07:51:08;99546.72;;;20.42
43802;BMP280;29429;51.074;13.764;2023-09-19T07:53:36;99557.28;;;20.44
43802;BMP280;29429;51.074;13.764;2023-09-19T07:56:06;99549.97;;;20.44
43802;BMP280;29429;51.074;13.764;2023-09-19T07:58:35;99552.66;;;20.49
43802;BMP280;29429;51.074;13.764;2023-09-19T08:01:05;99552.13;;;20.52
43802;BMP280;29429;51.074;13.764;2023-09-19T08:03:34;99559.16;;;20.58
43802;BMP280;29429;51.074;13.764;2023-09-19T08:06:02;99560.50;;;20.61
43802;BMP280;29429;51.074;13.764;2023-09-19T08:08:31;99552.66;;;20.59
43802;BMP280;29429;51.074;13.764;2023-09-19T08:10:59;99552.66;;;20.59
43802;BMP280;29429;51.074;13.764;2023-09-19T08:13:26;99558.63;;;20.56
43802;BMP280;29429;51.074;13.764;2023-09-19T08:15:57;99554.03;;;20.57
43802;BMP280;29429;51.074;13.764;2023-09-19T08:18:25;99568.94;;;20.59
43802;BMP280;29429;51.074;13.764;2023-09-19T08:20:53;99565.91;;;20.66
43802;BMP280;29429;51.074;13.764;2023-09-19T08:23:21;99561.00;;;20.73
43802;BMP280;29429;51.074;13.764;2023-09-19T08:25:48;99574.28;;;20.80
43802;BMP280;29429;51.074;13.764;2023-09-19T08:28:16;99568.31;;;20.83
43802;BMP280;29429;51.074;13.764;2023-09-19T08:30:50;99562.84;;;20.93
43802;BMP280;29429;51.074;13.764;2023-09-19T08:33:18;99561.72;;;21.09
43802;BMP280;29429;51.074;13.764;2023-09-19T08:35:45;99567.31;;;21.33
43802;BMP280;29429;51.074;13.764;2023-09-19T08:38:13;99572.34;;;21.54
43802;BMP280;29429;51.074;13.764;2023-09-19T08:40:41;99583.13;;;21.69
43802;BMP280;29429;51.074;13.764;2023-09-19T08:43:10;99573.25;;;21.83
43802;BMP280;29429;51.074;13.764;2023-09-19T08:45:38;99581.88;;;21.96
43802;BMP280;29429;51.074;13.764;2023-09-19T08:51:03;99579.41;;;21.99
43802;BMP280;29429;51.074;13.764;2023-09-19T08:56:10;99591.44;;;21.83
43802;BMP280;29429;51.074;13.764;2023-09-19T08:58:46;99578.16;;;21.87
43802;BMP280;29429;51.074;13.764;2023-09-19T09:01:16;99577.56;;;21.84
43802;BMP280;29429;51.074;13.764;2023-09-19T09:03:44;99572.72;;;21.87
43802;BMP280;29429;51.074;13.764;2023-09-19T09:06:17;99580.00;;;21.91
43802;BMP280;29429;51.074;13.764;2023-09-19T09:08:46;99575.06;;;21.98
43802;BMP280;29429;51.074;13.764;2023-09-19T09:11:16;99579.56;;;22.13
43802;BMP280;29429;51.074;13.764;2023-09-19T09:14:35;99580.25;;;22.28
43802;BMP280;29429;51.074;13.764;2023-09-19T09:17:05;99577.94;;;22.40
43802;BMP280;29429;51.074;13.764;2023-09-19T09:19:33;99583.47;;;22.59
43802;BMP280;29429;51.074;13.764;2023-09-19T09:22:11;99575.84;;;22.66
43802;BMP280;29429;51.074;13.764;2023-09-19T09:24:55;99577.56;;;22.52
43802;BMP280;29429;51.074;13.764;2023-09-19T09:27:25;99590.31;;;22.28
43802;BMP280;29429;51.074;13.764;2023-09-19T09:29:53;99576.94;;;22.03
43802;BMP280;29429;51.074;13.764;2023-09-19T09:32:27;99582.97;;;21.95
43802;BMP280;29429;51.074;13.764;2023-09-19T09:34:58;99600.09;;;21.90
43802;BMP280;29429;51.074;13.764;2023-09-19T09:37:29;99589.50;;;21.94
43802;BMP280;29429;51.074;13.764;2023-09-19T09:40:01;99594.50;;;22.15
43802;BMP280;29429;51.074;13.764;2023-09-19T09:42:44;99590.63;;;22.21
43802;BMP280;29429;51.074;13.764;2023-09-19T09:45:21;99582.63;;;22.35
43802;BMP280;29429;51.074;13.764;2023-09-19T09:48:01;99593.44;;;22.45
43802;BMP280;29429;51.074;13.764;2023-09-19T09:50:48;99599.28;;;22.57
43802;BMP280;29429;51.074;13.764;2023-09-19T09:53:23;99589.72;;;22.60
43802;BMP280;29429;51.074;13.764;2023-09-19T09:59:03;99589.72;;;22.65
43802;BMP280;29429;51.074;13.764;2023-09-19T10:01:47;99587.13;;;22.78
43802;BMP280;29429;51.074;13.764;2023-09-19T10:04:29;99583.31;;;22.79
43802;BMP280;29429;51.074;13.764;2023-09-19T10:07:31;99582.31;;;22.70
43802;BMP280;29429;51.074;13.764;2023-09-19T10:10:35;99582.38;;;22.60
43802;BMP280;29429;51.074;13.764;2023-09-19T10:13:26;99589.28;;;22.53
43802;BMP280;29429;51.074;13.764;2023-09-19T10:15:58;99590.72;;;22.40
43802;BMP280;29429;51.074;13.764;2023-09-19T10:18:36;99594.47;;;22.49
43802;BMP280;29429;51.074;13.764;2023-09-19T10:21:10;99592.72;;;22.63
43802;BMP280;29429;51.074;13.764;2023-09-19T10:23:43;99593.19;;;22.70
43802;BMP280;29429;51.074;13.764;2023-09-19T10:26:17;99590.66;;;22.79
43802;BMP280;29429;51.074;13.764;2023-09-19T10:28:48;99592.19;;;22.85
43802;BMP280;29429;51.074;13.764;2023-09-19T10:31:23;99589.66;;;22.93
43802;BMP280;29429;51.074;13.764;2023-09-19T10:33:55;99588.22;;;23.01
43802;BMP280;29429;51.074;13.764;2023-09-19T10:36:25;99599.78;;;23.12
43802;BMP280;29429;51.074;13.764;2023-09-19T10:38:56;99598.38;;;23.14
43802;BMP280;29429;51.074;13.764;2023-09-19T10:41:28;99589.53;;;23.03
43802;BMP280;29429;51.074;13.764;2023-09-19T10:43:57;99580.63;;;23.22
43802;BMP280;29429;51.074;13.764;2023-09-19T10:46:27;99592.69;;;23.39
43802;BMP280;29429;51.074;13.764;2023-09-19T10:49:03;99583.72;;;23.57
43802;BMP280;29429;51.074;13.764;2023-09-19T10:51:44;99592.84;;;23.48
43802;BMP280;29429;51.074;13.764;2023-09-19T10:54:41;99581.94;;;23.48
43802;BMP280;29429;51.074;13.764;2023-09-19T11:06:23;99578.97;;;24.00
43802;BMP280;29429;51.074;13.764;2023-09-19T11:09:02;99581.59;;;24.24
43802;BMP280;29429;51.074;13.764;2023-09-19T11:11:51;99564.16;;;24.39
43802;BMP280;29429;51.074;13.764;2023-09-19T11:28:32;99579.06;;;23.77
43802;BMP280;29429;51.074;13.764;2023-09-19T11:31:41;99566.63;;;23.71
43802;BMP280;29429;51.074;13.764;2023-09-19T11:40:09;99579.16;;;23.72
43802;BMP280;29429;51.074;13.764;2023-09-19T11:42:50;99577.25;;;23.72
43802;BMP280;29429;51.074;13.764;2023-09-19T11:48:19;99570.91;;;23.58
43802;BMP280;29429;51.074;13.764;2023-09-19T11:50:48;99570.91;;;23.58
43802;BMP280;29429;51.074;13.764;2023-09-19T11:53:37;99586.50;;;23.71
43802;BMP280;29429;51.074;13.764;2023-09-19T11:56:10;99577.81;;;23.69
43802;BMP280;29429;51.074;13.764;2023-09-19T11:58:44;99583.28;;;23.69
43802;BMP280;29429;51.074;13.764;2023-09-19T12:01:13;99581.22;;;23.80
43802;BMP280;29429;51.074;13.764;2023-09-19T12:03:47;99572.44;;;23.83
43802;BMP280;29429;51.074;13.764;2023-09-19T12:06:24;99573.03;;;23.98
43802;BMP280;29429;51.074;13.764;2023-09-19T12:08:53;99570.66;;;24.10
43802;BMP280;29429;51.074;13.764;2023-09-19T12:11:31;99575.44;;;24.18
43802;BMP280;29429;51.074;13.764;2023-09-19T12:14:05;99570.19;;;24.22
43802;BMP280;29429;51.074;13.764;2023-09-19T12:16:33;99572.63;;;24.23
43802;BMP280;29429;51.074;13.764;2023-09-19T12:19:18;99579.16;;;24.22
43802;BMP280;29429;51.074;13.764;2023-09-19T12:22:00;99577.34;;;24.18
43802;BMP280;29429;51.074;13.764;2023-09-19T12:25:10;99577.94;;;24.15
43802;BMP280;29429;51.074;13.764;2023-09-19T12:27:47;99577.19;;;24.09
43802;BMP280;29429;51.074;13.764;2023-09-19T12:30:17;99584.34;;;24.05
43802;BMP280;29429;51.074;13.764;2023-09-19T12:32:54;99576.25;;;24.00
43802;BMP280;29429;51.074;13.764;2023-09-19T12:35:30;99572.28;;;24.11
43802;BMP280;29429;51.074;13.764;2023-09-19T12:38:04;99563.22;;;24.16
43802;BMP280;29429;51.074;13.764;2023-09-19T12:40:33;99569.75;;;24.15
43802;BMP280;29429;51.074;13.764;2023-09-19T12:43:05;99574.41;;;24.14
43802;BMP280;29429;51.074;13.764;2023-09-19T12:45:35;99561.56;;;24.15
43802;BMP280;29429;51.074;13.764;2023-09-19T12:48:23;99567.34;;;24.13
43802;BMP280;29429;51.074;13.764;2023-09-19T12:53:36;99565.25;;;24.05
43802;BMP280;29429;51.074;13.764;2023-09-19T12:56:10;99565.84;;;24.02
43802;BMP280;29429;51.074;13.764;2023-09-19T12:58:58;99564.75;;;24.03
43802;BMP280;29429;51.074;13.764;2023-09-19T13:01:31;99564.16;;;24.06
43802;BMP280;29429;51.074;13.764;2023-09-19T13:04:19;99568.81;;;24.06
43802;BMP280;29429;51.074;13.764;2023-09-19T13:06:51;99564.69;;;24.08
43802;BMP280;29429;51.074;13.764;2023-09-19T13:09:23;99571.31;;;24.02
43802;BMP280;29429;51.074;13.764;2023-09-19T14:37:46;99544.41;;;23.45
43802;BMP280;29429;51.074;13.764;2023-09-19T14:40:13;99533.28;;;23.41
43802;BMP280;29429;51.074;13.764;2023-09-19T14:42:43;99534.59;;;23.44
43802;BMP280;29429;51.074;13.764;2023-09-19T14:45:12;99534.53;;;23.49
43802;BMP280;29429;51.074;13.764;2023-09-19T14:47:41;99540.72;;;23.54
43802;BMP280;29429;51.074;13.764;2023-09-19T14:50:09;99538.81;;;23.55
43802;BMP280;29429;51.074;13.764;2023-09-19T14:52:37;99542.03;;;23.57
43802;BMP280;29429;51.074;13.764;2023-09-19T14:55:07;99530.56;;;23.60
43802;BMP280;29429;51.074;13.764;2023-09-19T14:57:42;99528.34;;;23.62
43802;BMP280;29429;51.074;13.764;2023-09-19T15:00:12;99530.78;;;23.63
43802;BMP280;29429;51.074;13.764;2023-09-19T15:02:40;99532.19;;;23.61
43802;BMP280;29429;51.074;13.764;2023-09-19T15:05:08;99532.84;;;23.53
43802;BMP280;29429;51.074;13.764;2023-09-19T15:07:36;99520.56;;;23.55
43802;BMP280;29429;51.074;13.764;2023-09-19T15:10:05;99526.44;;;23.62
43802;BMP280;29429;51.074;13.764;2023-09-19T15:12:34;99533.19;;;23.65
43802;BMP280;29429;51.074;13.764;2023-09-19T15:15:27;99530.56;;;23.60
43802;BMP280;29429;51.074;13.764;2023-09-19T15:18:01;99527.69;;;23.51
43802;BMP280;29429;51.074;13.764;2023-09-19T15:20:29;99528.06;;;23.45
43802;BMP280;29429;51.074;13.764;2023-09-19T15:22:58;99526.44;;;23.44
43802;BMP280;29429;51.074;13.764;2023-09-19T15:25:26;99527.56;;;23.43
43802;BMP280;29429;51.074;13.764;2023-09-19T15:27:54;99528.97;;;23.40
43802;BMP280;29429;51.074;13.764;2023-09-19T15:30:22;99531.19;;;23.33
43802;BMP280;29429;51.074;13.764;2023-09-19T15:32:50;99526.91;;;23.27
43802;BMP280;29429;51.074;13.764;2023-09-19T15:35:19;99527.53;;;23.24
43802;BMP280;29429;51.074;13.764;2023-09-19T15:37:46;99521.34;;;23.19
43802;BMP280;29429;51.074;13.764;2023-09-19T15:40:15;99519.53;;;23.09
43802;BMP280;29429;51.074;13.764;2023-09-19T15:42:43;99524.53;;;23.02
43802;BMP280;29429;51.074;13.764;2023-09-19T15:45:36;99522.69;;;22.97
43802;BMP280;29429;51.074;13.764;2023-09-19T15:48:04;99522.78;;;22.92
43802;BMP280;29429;51.074;13.764;2023-09-19T15:50:32;99523.41;;;22.84
43802;BMP280;29429;51.074;13.764;2023-09-19T15:53:00;99528.09;;;22.79
43802;BMP280;29429;51.074;13.764;2023-09-19T15:55:28;99538.22;;;22.73
43802;BMP280;29429;51.074;13.764;2023-09-19T15:57:57;99534.50;;;22.64
43802;BMP280;29429;51.074;13.764;2023-09-19T16:00:25;99533.44;;;22.60
43802;BMP280;29429;51.074;13.764;2023-09-19T16:02:53;99529.16;;;22.54
43802;BMP280;29429;51.074;13.764;2023-09-19T16:05:22;99531.63;;;22.51
43802;BMP280;29429;51.074;13.764;2023-09-19T16:07:49;99524.66;;;22.44
43802;BMP280;29429;51.074;13.764;2023-09-19T16:10:17;99527.41;;;22.39
43802;BMP280;29429;51.074;13.764;2023-09-19T16:12:44;99526.94;;;22.32
43802;BMP280;29429;51.074;13.764;2023-09-19T16:15:11;99524.25;;;22.27
43802;BMP280;29429;51.074;13.764;2023-09-19T16:17:41;99531.13;;;22.20
43802;BMP280;29429;51.074;13.764;2023-09-19T16:20:09;99535.81;;;22.14
43802;BMP280;29429;51.074;13.764;2023-09-19T16:22:39;99535.91;;;22.04
43802;BMP280;29429;51.074;13.764;2023-09-19T16:25:07;99544.09;;;21.99
43802;BMP280;29429;51.074;13.764;2023-09-19T16:27:38;99536.81;;;21.95
43802;BMP280;29429;51.074;13.764;2023-09-19T16:30:07;99537.63;;;21.90
43802;BMP280;29429;51.074;13.764;2023-09-19T16:32:37;99544.97;;;21.84
43802;BMP280;29429;51.074;13.764;2023-09-19T16:35:04;99542.31;;;21.79
43802;BMP280;29429;51.074;13.764;2023-09-19T16:37:32;99551.00;;;21.76
43802;BMP280;29429;51.074;13.764;2023-09-19T16:40:00;99546.44;;;21.72
43802;BMP280;29429;51.074;13.764;2023-09-19T16:42:27;99551.63;;;21.68
43802;BMP280;29429;51.074;13.764;2023-09-19T16:45:01;99557.38;;;21.62
43802;BMP280;29429;51.074;13.764;2023-09-19T16:47:29;99561.22;;;21.56
43802;BMP280;29429;51.074;13.764;2023-09-19T16:49:57;99561.25;;;21.51
43802;BMP280;29429;51.074;13.764;2023-09-19T16:52:25;99571.31;;;21.45